Allegany, New York
Current Conditions -  °F | °C
As of 4:35 AM on Thursday 23 Oct 2014 (Local Time) from KOLE Reporting Station
Overcast Overcast  
Wind Chill: 30°   Ceiling: 700
Heat Index: 37°   Visibility: 10mi
Dew Point: 37°   Wind: 10mph
Humidity: 100%   Direction: 330°NNW
Pressure: 30.07"   Gusts: 17mph
Location:  42.09°N, 78.49°W
Report Text: KOLE 230835Z AUTO 33009G15KT 300V360 10SM OVC007 03/03 A3007 RMK AO2
Loading
Personal Weather Stations






























Interactive Weather Map
Tropical Storm Tracking
New forecast layout! Learn more

10-Day Weather Forecast

Advertisements
Track Severe Weather on mobile